createdAt,value
2018-09-15T00:03:43.674Z,13.65
2018-09-15T00:09:38.648Z,9.99
2018-09-15T00:15:33.721Z,10.87
2018-09-15T00:21:28.676Z,10.21
2018-09-15T00:27:23.680Z,9.27
2018-09-15T00:33:18.661Z,9.12
2018-09-15T00:39:13.687Z,8.67
2018-09-15T00:45:09.986Z,14.48
2018-09-15T00:51:04.600Z,13.79
2018-09-15T00:56:58.733Z,14.54
2018-09-15T01:02:53.725Z,14.3
2018-09-15T01:08:48.687Z,7.6
2018-09-15T01:14:43.784Z,12.52
2018-09-15T01:20:38.901Z,10.15
2018-09-15T01:26:33.737Z,10.72
2018-09-15T01:32:28.755Z,9.6
2018-09-15T01:38:23.735Z,10.41
2018-09-15T01:44:18.765Z,8.62
2018-09-15T01:50:13.742Z,10.27
2018-09-15T01:56:08.768Z,11.91
2018-09-15T02:02:04.025Z,8.46
2018-09-15T02:07:58.838Z,11.72
2018-09-15T02:13:53.777Z,8.57
2018-09-15T02:19:48.783Z,6.06
2018-09-15T02:25:43.764Z,14.8
2018-09-15T02:31:38.797Z,9.05
2018-09-15T02:37:33.802Z,7.34
2018-09-15T02:43:28.796Z,11.07
2018-09-15T02:49:23.849Z,10.98
2018-09-15T02:55:18.814Z,8.53
2018-09-15T03:01:13.801Z,10.26
2018-09-15T03:07:08.818Z,9.64
2018-09-15T03:13:03.824Z,9.6
2018-09-15T03:18:58.852Z,9.04
2018-09-15T03:24:53.850Z,9.53
2018-09-15T03:30:48.836Z,9.18
2018-09-15T03:36:43.851Z,11.65
2018-09-15T03:42:38.848Z,7.64
2018-09-15T03:48:33.894Z,9.11
2018-09-15T03:54:28.848Z,11.67
2018-09-15T04:00:23.886Z,9.35
2018-09-15T04:06:18.891Z,11.05
2018-09-15T04:12:13.862Z,12.89
2018-09-15T04:18:08.886Z,11.18
2018-09-15T04:24:03.893Z,12.87
2018-09-15T04:29:58.953Z,8.09
2018-09-15T04:35:53.923Z,9.43
2018-09-15T04:41:49.011Z,10.03
2018-09-15T04:47:43.922Z,8
2018-09-15T04:53:38.901Z,9.59
2018-09-15T04:59:33.962Z,10.01
2018-09-15T05:05:28.952Z,9.6
2018-09-15T05:11:23.938Z,11.33
2018-09-15T05:17:18.931Z,10.78
2018-09-15T05:23:13.969Z,9.5
2018-09-15T05:29:08.965Z,13.66
2018-09-15T05:35:03.942Z,8.93
2018-09-15T05:40:58.999Z,12.86
2018-09-15T05:46:54.005Z,11.21
2018-09-15T05:52:48.966Z,12.6
2018-09-15T05:58:43.976Z,14.46
2018-09-15T06:04:38.988Z,13.89
2018-09-15T06:10:33.984Z,10.77
2018-09-15T06:16:29.007Z,13.95
2018-09-15T06:22:24.029Z,12.22
2018-09-15T06:28:19.001Z,16.7
2018-09-15T06:34:14.032Z,14.87
2018-09-15T06:40:09.062Z,14.58
2018-09-15T06:46:04.038Z,13.65
2018-09-15T06:51:59.090Z,15.19
2018-09-15T06:57:54.080Z,15.5
2018-09-15T07:03:49.097Z,14.15
2018-09-15T07:09:44.036Z,19.72
2018-09-15T07:15:39.132Z,17.02
2018-09-15T07:21:34.102Z,16.68
2018-09-15T07:27:29.064Z,15.94
2018-09-15T07:33:24.103Z,15.29
2018-09-15T07:39:19.070Z,14.51
2018-09-15T07:45:14.127Z,13.91
2018-09-15T07:51:09.076Z,16.47
2018-09-15T07:57:04.128Z,18.05
2018-09-15T08:02:59.114Z,16.13
2018-09-15T08:08:54.180Z,15.83
2018-09-15T08:14:49.118Z,14.37
2018-09-15T08:20:44.209Z,17.55
2018-09-15T08:26:39.113Z,15.6
2018-09-15T08:32:34.166Z,12.29
2018-09-15T08:38:29.226Z,14.95
2018-09-15T08:44:24.152Z,13.78
2018-09-15T08:50:19.130Z,10.32
2018-09-15T08:56:14.930Z,14.78
2018-09-15T09:02:09.869Z,13.49
2018-09-15T09:08:04.739Z,8.91
2018-09-15T09:13:59.826Z,16.18
2018-09-15T09:19:54.602Z,10.83
2018-09-15T09:25:49.249Z,16.59
2018-09-15T09:31:44.169Z,13.44
2018-09-15T09:37:39.543Z,11.38
2018-09-15T09:43:34.231Z,13.89
2018-09-15T09:49:29.392Z,12.1
2018-09-15T09:55:24.200Z,14.18
2018-09-15T10:01:19.279Z,11.97
2018-09-15T10:07:14.281Z,17.49
2018-09-15T10:13:09.224Z,15.46
2018-09-15T10:19:04.260Z,9.98
2018-09-15T10:24:59.239Z,14.94
2018-09-15T10:30:54.252Z,10.38
2018-09-15T10:36:49.247Z,8.45
2018-09-15T10:42:44.283Z,11.45
2018-09-15T10:48:39.371Z,13.43
2018-09-15T10:54:34.254Z,12.35
2018-09-15T11:00:29.384Z,12.84
2018-09-15T11:06:24.281Z,8.32
2018-09-15T11:12:19.281Z,11.11
2018-09-15T11:18:14.297Z,10.83
2018-09-15T11:24:09.305Z,8.24
2018-09-15T11:30:04.515Z,12.83
2018-09-15T11:35:59.332Z,10.22
2018-09-15T11:41:54.348Z,7.14
2018-09-15T11:47:49.434Z,8.77
2018-09-15T11:53:44.434Z,12.02
2018-09-15T11:59:39.325Z,10.6
2018-09-15T12:05:34.345Z,8.78
2018-09-15T12:11:29.374Z,10.34
2018-09-15T12:17:24.347Z,11.2
2018-09-15T12:23:19.362Z,6.75
2018-09-15T12:29:14.411Z,8.99
2018-09-15T12:35:09.366Z,8.84
2018-09-15T12:41:04.401Z,6.63
2018-09-15T12:47:00.714Z,9.91
2018-09-15T12:52:58.480Z,10.01
2018-09-15T12:58:53.588Z,6.99
2018-09-15T13:04:48.502Z,9.62
2018-09-15T13:10:39.485Z,9.65
2018-09-15T13:16:38.439Z,7.1
2018-09-15T13:22:29.433Z,8.17
2018-09-15T13:28:28.455Z,9.75
2018-09-15T13:34:23.448Z,8.66
2018-09-15T13:40:14.458Z,6.76
2018-09-15T13:46:13.467Z,11.67
2018-09-15T13:52:04.501Z,5.99
2018-09-15T13:58:03.538Z,7.4
2018-09-15T14:03:58.562Z,6.71
2018-09-15T14:09:49.492Z,5.67
2018-09-15T14:15:44.470Z,6.57
2018-09-15T14:21:43.510Z,7.15
2018-09-15T14:27:34.525Z,8.71
2018-09-15T14:33:33.587Z,7.47
2018-09-15T14:39:28.633Z,5.85
2018-09-15T14:45:19.511Z,8.05
2018-09-15T14:51:14.547Z,5.35
2018-09-15T14:57:13.714Z,5.3
2018-09-15T15:03:04.527Z,6.92
2018-09-15T15:09:03.633Z,5.36
2018-09-15T15:14:58.665Z,5.33
2018-09-15T15:20:49.545Z,5.55
2018-09-15T15:26:44.552Z,4.8
2018-09-15T15:32:39.549Z,9.04
2018-09-15T15:38:34.593Z,5.85
2018-09-15T15:44:33.615Z,6.71
2018-09-15T15:50:28.895Z,7.26
2018-09-15T15:56:19.564Z,6.86
2018-09-15T16:02:18.847Z,6.13
2018-09-15T16:08:09.593Z,8.87
2018-09-15T16:14:04.603Z,5.97
2018-09-15T16:20:03.719Z,8.59
2018-09-15T16:25:54.617Z,8.36
2018-09-15T16:31:53.772Z,6.6
2018-09-15T16:37:44.621Z,6.68
2018-09-15T16:43:43.673Z,6.09
2018-09-15T16:49:38.757Z,8.37
2018-09-15T16:55:34.654Z,10.55
2018-09-15T17:01:28.789Z,25.18
2018-09-15T17:07:19.654Z,24.95
2018-09-15T17:13:19.704Z,41.31
2018-09-15T17:19:13.796Z,71.4
2018-09-15T17:25:04.700Z,96.63
2018-09-15T17:31:03.821Z,103.16
2018-09-15T17:36:54.705Z,126.89
2018-09-15T17:42:49.698Z,149.09
2018-09-15T17:48:44.712Z,108.39
2018-09-15T17:54:39.769Z,71.93
2018-09-15T18:00:34.702Z,91.32
2018-09-15T18:06:29.717Z,106.62
2018-09-15T18:12:24.687Z,80.57
2018-09-15T18:18:19.711Z,98
2018-09-15T18:24:14.727Z,93.32
2018-09-15T18:30:09.727Z,96.6
2018-09-15T18:36:07.847Z,77.18
2018-09-15T18:41:59.749Z,82.21
2018-09-15T18:47:54.797Z,83.58
2018-09-15T18:53:53.805Z,61.02
2018-09-15T18:59:44.787Z,67.5
2018-09-15T19:05:39.760Z,57.99
2018-09-15T19:11:34.750Z,48.53
